createdAt,value
2018-01-11T00:00:15.487Z,1008.4
2018-01-11T00:01:25.428Z,1008.41
2018-01-11T00:02:35.155Z,1008.4
2018-01-11T00:03:45.104Z,1008.4
2018-01-11T00:04:54.797Z,1008.41
2018-01-11T00:06:04.751Z,1008.39
2018-01-11T00:07:14.704Z,1008.39
2018-01-11T00:08:24.774Z,1008.37
2018-01-11T00:09:34.716Z,1008.36
2018-01-11T00:10:44.656Z,1008.42
2018-01-11T00:11:54.605Z,1008.39
2018-01-11T00:13:04.551Z,1008.41
2018-01-11T00:14:14.501Z,1008.36
2018-01-11T00:15:24.442Z,1008.38
2018-01-11T00:16:34.387Z,1008.4
2018-01-11T00:17:44.344Z,1008.43
2018-01-11T00:18:54.294Z,1008.37
2018-01-11T00:20:04.292Z,1008.38
2018-01-11T00:21:13.993Z,1008.36
2018-01-11T00:22:23.946Z,1008.44
2018-01-11T00:23:33.903Z,1008.38
2018-01-11T00:24:43.861Z,1008.36
2018-01-11T00:25:53.867Z,1008.36
2018-01-11T00:27:03.818Z,1008.37
2018-01-11T00:28:13.785Z,1008.42
2018-01-11T00:29:23.734Z,1008.39
2018-01-11T00:30:33.708Z,1008.4
2018-01-11T00:31:43.665Z,1008.37
2018-01-11T00:32:53.349Z,1008.37
2018-01-11T00:34:03.303Z,1008.43
2018-01-11T00:35:13.249Z,1008.36
2018-01-11T00:36:23.000Z,1008.34
2018-01-11T00:37:32.948Z,1008.33
2018-01-11T00:38:42.900Z,1008.33
2018-01-11T00:39:52.609Z,1008.28
2018-01-11T00:41:02.047Z,1008.28
2018-01-11T00:42:11.755Z,1008.29
2018-01-11T00:43:21.448Z,1008.32
2018-01-11T00:44:31.401Z,1008.28
2018-01-11T00:45:41.349Z,1008.26
2018-01-11T00:46:51.289Z,1008.23
2018-01-11T00:48:01.242Z,1008.19
2018-01-11T00:49:10.944Z,1008.18
2018-01-11T00:50:21.157Z,1008.19
2018-01-11T00:51:30.592Z,1008.21
2018-01-11T00:52:40.582Z,1008.22
2018-01-11T00:53:50.018Z,1008.18
2018-01-11T00:54:59.720Z,1008.25
2018-01-11T00:56:09.665Z,1008.24
2018-01-11T00:57:19.352Z,1008.24
2018-01-11T00:58:29.044Z,1008.28
2018-01-11T00:59:38.737Z,1008.24
2018-01-11T01:00:48.680Z,1008.28
2018-01-11T01:01:58.388Z,1008.27
2018-01-11T01:03:08.334Z,1008.26
2018-01-11T01:04:17.763Z,1008.32
2018-01-11T01:05:27.451Z,1008.28
2018-01-11T01:06:37.393Z,1008.32
2018-01-11T01:07:47.340Z,1008.3
2018-01-11T01:08:57.316Z,1008.33
2018-01-11T01:10:07.275Z,1008.3
2018-01-11T01:11:17.219Z,1008.3
2018-01-11T01:12:27.162Z,1008.34
2018-01-11T01:13:37.094Z,1008.35
2018-01-11T01:14:46.780Z,1008.3
2018-01-11T01:15:56.469Z,1008.34
2018-01-11T01:17:06.430Z,1008.37
2018-01-11T01:18:16.372Z,1008.4
2018-01-11T01:19:26.068Z,1008.44
2018-01-11T01:20:36.028Z,1008.46
2018-01-11T01:21:45.975Z,1008.45
2018-01-11T01:22:55.401Z,1008.47
2018-01-11T01:24:05.344Z,1008.42
2018-01-11T01:25:15.288Z,1008.45
2018-01-11T01:26:24.989Z,1008.45
2018-01-11T01:27:34.678Z,1008.46
2018-01-11T01:28:44.680Z,1008.42
2018-01-11T01:29:54.362Z,1008.44
2018-01-11T01:31:04.052Z,1008.43
2018-01-11T01:32:14.005Z,1008.47
2018-01-11T01:33:23.703Z,1008.46
2018-01-11T01:34:33.137Z,1008.47
2018-01-11T01:35:43.100Z,1008.41
2018-01-11T01:36:53.040Z,1008.46
2018-01-11T01:38:02.781Z,1008.44
2018-01-11T01:39:12.730Z,1008.39
2018-01-11T01:40:22.669Z,1008.44
2018-01-11T01:41:32.617Z,1008.44
2018-01-11T01:42:42.563Z,1008.44
2018-01-11T01:43:52.512Z,1008.5
2018-01-11T01:45:02.480Z,1008.46
2018-01-11T01:46:12.192Z,1008.47
2018-01-11T01:47:22.140Z,1008.46
2018-01-11T01:48:31.825Z,1008.43
2018-01-11T01:49:41.004Z,1008.49
2018-01-11T01:50:50.698Z,1008.45
2018-01-11T01:52:00.640Z,1008.48
2018-01-11T01:53:10.588Z,1008.47
2018-01-11T01:54:20.533Z,1008.47
2018-01-11T01:55:30.482Z,1008.51
2018-01-11T01:56:40.449Z,1008.44
2018-01-11T01:57:50.131Z,1008.47
2018-01-11T01:59:00.079Z,1008.5
2018-01-11T02:00:10.032Z,1008.48
2018-01-11T02:01:19.997Z,1008.49
2018-01-11T02:02:29.688Z,1008.55
2018-01-11T02:03:39.651Z,1008.54
2018-01-11T02:04:49.607Z,1008.52
2018-01-11T02:05:59.284Z,1008.54
2018-01-11T02:07:09.042Z,1008.55
2018-01-11T02:08:18.733Z,1008.62
2018-01-11T02:09:28.680Z,1008.55
2018-01-11T02:10:38.379Z,1008.57
2018-01-11T02:11:48.325Z,1008.59
2018-01-11T02:12:58.265Z,1008.57
2018-01-11T02:14:07.958Z,1008.57
2018-01-11T02:15:17.922Z,1008.6
2018-01-11T02:16:27.881Z,1008.6
2018-01-11T02:17:37.560Z,1008.61
2018-01-11T02:18:47.512Z,1008.64
2018-01-11T02:19:57.467Z,1008.63
2018-01-11T02:21:07.421Z,1008.69
2018-01-11T02:22:17.376Z,1008.64
2018-01-11T02:23:27.327Z,1008.65
2018-01-11T02:24:37.271Z,1008.64
2018-01-11T02:25:47.218Z,1008.66
2018-01-11T02:26:57.169Z,1008.66
2018-01-11T02:28:07.118Z,1008.68
2018-01-11T02:29:17.064Z,1008.68
2018-01-11T02:30:27.059Z,1008.71
2018-01-11T02:31:37.023Z,1008.68
2018-01-11T02:32:46.966Z,1008.7
2018-01-11T02:33:56.913Z,1008.68
2018-01-11T02:35:06.862Z,1008.64
2018-01-11T02:36:16.811Z,1008.64
2018-01-11T02:37:26.830Z,1008.67
2018-01-11T02:38:36.792Z,1008.67
2018-01-11T02:39:46.752Z,1008.69
2018-01-11T02:40:56.454Z,1008.66
2018-01-11T02:42:06.401Z,1008.65
2018-01-11T02:43:16.102Z,1008.61
2018-01-11T02:44:26.069Z,1008.65
2018-01-11T02:45:35.769Z,1008.65
2018-01-11T02:46:46.004Z,1008.7
2018-01-11T02:47:56.247Z,1008.64
2018-01-11T02:49:06.194Z,1008.7
2018-01-11T02:50:15.947Z,1008.73
2018-01-11T02:51:25.886Z,1008.73
2018-01-11T02:52:35.822Z,1008.75
2018-01-11T02:53:45.774Z,1008.77
2018-01-11T02:54:55.720Z,1008.73
2018-01-11T02:56:05.660Z,1008.73
2018-01-11T02:57:15.619Z,1008.75
2018-01-11T02:58:25.592Z,1008.75
2018-01-11T02:59:35.544Z,1008.77
2018-01-11T03:00:45.508Z,1008.77
2018-01-11T03:01:55.215Z,1008.75
2018-01-11T03:03:05.166Z,1008.79
2018-01-11T03:04:14.589Z,1008.78
2018-01-11T03:05:24.530Z,1008.78
2018-01-11T03:06:34.475Z,1008.77
2018-01-11T03:07:44.161Z,1008.79
2018-01-11T03:08:54.097Z,1008.8
2018-01-11T03:10:04.051Z,1008.82
2018-01-11T03:11:14.002Z,1008.84
2018-01-11T03:12:23.465Z,1008.8
2018-01-11T03:13:33.403Z,1008.82
2018-01-11T03:14:43.352Z,1008.82
2018-01-11T03:15:52.781Z,1008.8
2018-01-11T03:17:02.726Z,1008.82
2018-01-11T03:18:12.669Z,1008.78
2018-01-11T03:19:22.362Z,1008.79
2018-01-11T03:20:32.298Z,1008.77
2018-01-11T03:21:41.985Z,1008.78
2018-01-11T03:22:51.924Z,1008.76
2018-01-11T03:24:01.869Z,1008.78
2018-01-11T03:25:11.297Z,1008.79
2018-01-11T03:26:21.089Z,1008.74
2018-01-11T03:27:30.788Z,1008.73
2018-01-11T03:28:40.735Z,1008.76
2018-01-11T03:29:50.437Z,1008.76
2018-01-11T03:31:00.126Z,1008.74
2018-01-11T03:32:09.569Z,1008.72
2018-01-11T03:33:19.506Z,1008.72
2018-01-11T03:34:29.458Z,1008.7
2018-01-11T03:35:38.891Z,1008.72
2018-01-11T03:36:48.837Z,1008.73
2018-01-11T03:37:58.783Z,1008.76
2018-01-11T03:39:08.729Z,1008.73
2018-01-11T03:40:18.680Z,1008.78
2018-01-11T03:41:28.367Z,1008.72
2018-01-11T03:42:38.071Z,1008.7
2018-01-11T03:43:48.019Z,1008.69
2018-01-11T03:44:57.708Z,1008.72
2018-01-11T03:46:07.417Z,1008.72
2018-01-11T03:47:16.899Z,1008.72
2018-01-11T03:48:26.586Z,1008.73
2018-01-11T03:49:36.521Z,1008.68
2018-01-11T03:50:46.466Z,1008.7
2018-01-11T03:51:56.411Z,1008.7
2018-01-11T03:53:06.107Z,1008.69
2018-01-11T03:54:15.546Z,1008.68
2018-01-11T03:55:25.500Z,1008.68
2018-01-11T03:56:35.188Z,1008.72
2018-01-11T03:57:45.133Z,1008.72
2018-01-11T03:58:54.571Z,1008.69
2018-01-11T04:00:04.262Z,1008.72
2018-01-11T04:01:13.957Z,1008.74
2018-01-11T04:02:23.705Z,1008.77
2018-01-11T04:03:33.643Z,1008.77
2018-01-11T04:04:43.581Z,1008.77
2018-01-11T04:05:53.271Z,1008.8
2018-01-11T04:07:02.958Z,1008.8
2018-01-11T04:08:12.903Z,1008.82
2018-01-11T04:09:22.592Z,1008.79
2018-01-11T04:10:32.542Z,1008.75
2018-01-11T04:11:42.489Z,1008.81
2018-01-11T04:12:52.438Z,1008.81
2018-01-11T04:14:02.399Z,1008.8
2018-01-11T04:15:11.578Z,1008.8
2018-01-11T04:16:21.273Z,1008.8
2018-01-11T04:17:31.236Z,1008.8
2018-01-11T04:18:41.246Z,1008.86
2018-01-11T04:19:50.942Z,1008.86
2018-01-11T04:21:00.887Z,1008.88
2018-01-11T04:22:10.837Z,1008.86
2018-01-11T04:23:20.789Z,1008.9
2018-01-11T04:24:30.473Z,1008.89
2018-01-11T04:25:40.425Z,1008.89
2018-01-11T04:26:50.413Z,1008.91
2018-01-11T04:28:00.117Z,1008.93
2018-01-11T04:29:10.060Z,1008.9
2018-01-11T04:30:20.013Z,1008.96
2018-01-11T04:31:29.964Z,1008.93
2018-01-11T04:32:39.656Z,1008.94
2018-01-11T04:33:49.596Z,1008.93
2018-01-11T04:34:59.547Z,1008.94
2018-01-11T04:36:09.518Z,1008.92
2018-01-11T04:37:19.220Z,1008.94
2018-01-11T04:38:29.173Z,1008.94
2018-01-11T04:39:39.169Z,1008.93
2018-01-11T04:40:49.112Z,1008.91
2018-01-11T04:41:59.054Z,1008.91
2018-01-11T04:43:09.005Z,1008.92
2018-01-11T04:44:18.694Z,1008.97
2018-01-11T04:45:28.384Z,1008.92
2018-01-11T04:46:38.330Z,1008.96
2018-01-11T04:47:48.522Z,1008.92
2018-01-11T04:48:58.481Z,1008.96
2018-01-11T04:50:08.179Z,1009.01
2018-01-11T04:51:18.116Z,1008.99
2018-01-11T04:52:28.065Z,1008.99
2018-01-11T04:53:38.316Z,1009.03
2018-01-11T04:54:47.801Z,1009.04
2018-01-11T04:55:57.755Z,1009.03
2018-01-11T04:57:07.706Z,1009.07
2018-01-11T04:58:17.685Z,1009.07
2018-01-11T04:59:27.639Z,1009.03
2018-01-11T05:00:37.590Z,1009.07
2018-01-11T05:01:47.281Z,1009.04
2018-01-11T05:02:57.223Z,1009.06
2018-01-11T05:04:06.658Z,1009.12
2018-01-11T05:05:16.086Z,1009.05
2018-01-11T05:06:26.032Z,1009.1
2018-01-11T05:07:35.714Z,1009.08
2018-01-11T05:08:45.670Z,1009.09
2018-01-11T05:09:55.615Z,1009.06
2018-01-11T05:11:05.564Z,1009.05
2018-01-11T05:12:15.260Z,1009.06
2018-01-11T05:13:25.033Z,1009.02
2018-01-11T05:14:34.980Z,1009.05
2018-01-11T05:15:44.930Z,1009.04
2018-01-11T05:16:54.359Z,1009
2018-01-11T05:18:04.055Z,1009.02
2018-01-11T05:19:13.772Z,1008.99
2018-01-11T05:20:23.725Z,1008.98
2018-01-11T05:21:33.406Z,1008.99
2018-01-11T05:22:42.843Z,1008.98
2018-01-11T05:23:52.799Z,1008.97
2018-01-11T05:25:02.489Z,1009
2018-01-11T05:26:11.937Z,1009.02
2018-01-11T05:27:21.876Z,1009.06
2018-01-11T05:28:31.571Z,1009.01
2018-01-11T05:29:41.515Z,1009.06
2018-01-11T05:30:51.200Z,1009.05
2018-01-11T05:32:01.158Z,1009.06
2018-01-11T05:33:10.857Z,1008.97
2018-01-11T05:34:20.544Z,1009
2018-01-11T05:35:30.243Z,1009.04
2018-01-11T05:36:40.208Z,1009.05
2018-01-11T05:37:49.896Z,1009.01
2018-01-11T05:38:59.600Z,1009.03
2018-01-11T05:40:09.545Z,1009.01
2018-01-11T05:41:19.494Z,1009.05
2018-01-11T05:42:29.178Z,1009.02
2018-01-11T05:43:39.117Z,1008.99
2018-01-11T05:44:49.058Z,1009
2018-01-11T05:45:59.011Z,1009.01
2018-01-11T05:47:08.701Z,1009.07
2018-01-11T05:48:18.130Z,1009.04
2018-01-11T05:49:27.834Z,1009.06
2018-01-11T05:50:37.559Z,1009.08
2018-01-11T05:51:47.502Z,1009.09
2018-01-11T05:52:57.210Z,1009.07
2018-01-11T05:54:07.160Z,1009.05
2018-01-11T05:55:17.099Z,1009.12
2018-01-11T05:56:27.043Z,1009.1
2018-01-11T05:57:36.730Z,1009.11
2018-01-11T05:58:46.680Z,1009.1
2018-01-11T05:59:56.099Z,1009.11
2018-01-11T06:01:06.070Z,1009.1
2018-01-11T06:02:16.016Z,1009.11
2018-01-11T06:03:25.712Z,1009.12
2018-01-11T06:04:35.657Z,1009.13
2018-01-11T06:05:45.342Z,1009.14
2018-01-11T06:06:55.349Z,1009.17
2018-01-11T06:08:05.038Z,1009.15
2018-01-11T06:09:14.737Z,1009.17
2018-01-11T06:10:24.770Z,1009.17
2018-01-11T06:11:34.205Z,1009.24
2018-01-11T06:12:44.153Z,1009.23
2018-01-11T06:13:54.099Z,1009.25
2018-01-11T06:15:03.789Z,1009.27
2018-01-11T06:16:13.735Z,1009.28
2018-01-11T06:17:23.417Z,1009.28
2018-01-11T06:18:33.368Z,1009.28
2018-01-11T06:19:42.817Z,1009.29
2018-01-11T06:20:52.771Z,1009.29
2018-01-11T06:22:02.731Z,1009.31
2018-01-11T06:23:12.430Z,1009.33
2018-01-11T06:24:22.116Z,1009.36
2018-01-11T06:25:31.804Z,1009.34
2018-01-11T06:26:41.757Z,1009.39
2018-01-11T06:27:51.444Z,1009.35
2018-01-11T06:29:01.387Z,1009.4
2018-01-11T06:30:11.339Z,1009.39
2018-01-11T06:31:21.295Z,1009.43
2018-01-11T06:32:30.983Z,1009.39
2018-01-11T06:33:40.943Z,1009.48
2018-01-11T06:34:50.902Z,1009.48
2018-01-11T06:36:00.849Z,1009.51
2018-01-11T06:37:10.784Z,1009.51
2018-01-11T06:38:20.738Z,1009.49
2018-01-11T06:39:30.418Z,1009.49
2018-01-11T06:40:40.136Z,1009.53
2018-01-11T06:41:50.100Z,1009.49
2018-01-11T06:42:59.808Z,1009.5
2018-01-11T06:44:09.761Z,1009.44
2018-01-11T06:45:19.694Z,1009.44
2018-01-11T06:46:29.374Z,1009.46
2018-01-11T06:47:39.077Z,1009.42
2018-01-11T06:48:48.764Z,1009.44
2018-01-11T06:49:58.948Z,1009.45
2018-01-11T06:51:08.923Z,1009.42
2018-01-11T06:52:18.610Z,1009.42
2018-01-11T06:53:28.327Z,1009.41
2018-01-11T06:54:38.279Z,1009.36
2018-01-11T06:55:48.499Z,1009.4
2018-01-11T06:56:58.445Z,1009.49
2018-01-11T06:58:08.404Z,1009.45
2018-01-11T06:59:18.112Z,1009.49
2018-01-11T07:00:28.071Z,1009.46
2018-01-11T07:01:37.759Z,1009.45
2018-01-11T07:02:47.462Z,1009.5
2018-01-11T07:03:56.890Z,1009.5
2018-01-11T07:05:06.851Z,1009.5
2018-01-11T07:06:16.548Z,1009.5
2018-01-11T07:07:26.508Z,1009.52
2018-01-11T07:08:36.457Z,1009.5
2018-01-11T07:09:46.411Z,1009.49
2018-01-11T07:10:56.365Z,1009.55
2018-01-11T07:12:06.083Z,1009.56
2018-01-11T07:13:16.047Z,1009.57
2018-01-11T07:14:25.995Z,1009.54
2018-01-11T07:15:35.689Z,1009.58
2018-01-11T07:16:45.388Z,1009.59
2018-01-11T07:17:55.388Z,1009.62
2018-01-11T07:19:05.346Z,1009.61
2018-01-11T07:20:15.296Z,1009.61
2018-01-11T07:21:25.305Z,1009.56
2018-01-11T07:22:35.262Z,1009.58
2018-01-11T07:23:45.210Z,1009.55
2018-01-11T07:24:55.175Z,1009.57
2018-01-11T07:26:04.620Z,1009.59
2018-01-11T07:27:14.312Z,1009.57
2018-01-11T07:28:23.766Z,1009.65
2018-01-11T07:29:33.477Z,1009.65
2018-01-11T07:30:42.907Z,1009.65
2018-01-11T07:31:52.879Z,1009.66
2018-01-11T07:33:02.848Z,1009.66
2018-01-11T07:34:12.820Z,1009.69
2018-01-11T07:35:22.856Z,1009.7
2018-01-11T07:36:32.288Z,1009.67
2018-01-11T07:37:42.305Z,1009.66
2018-01-11T07:38:52.268Z,1009.66
2018-01-11T07:40:01.962Z,1009.61
2018-01-11T07:41:11.908Z,1009.64
2018-01-11T07:42:21.623Z,1009.64
2018-01-11T07:43:31.570Z,1009.63
2018-01-11T07:44:41.534Z,1009.63
2018-01-11T07:45:51.230Z,1009.55
2018-01-11T07:47:01.197Z,1009.55
2018-01-11T07:48:11.165Z,1009.59
2018-01-11T07:49:20.870Z,1009.59
2018-01-11T07:50:30.842Z,1009.61
2018-01-11T07:51:40.619Z,1009.63
2018-01-11T07:52:50.641Z,1009.58
2018-01-11T07:54:00.328Z,1009.6
2018-01-11T07:55:10.044Z,1009.68
2018-01-11T07:56:20.006Z,1009.66
2018-01-11T07:57:29.721Z,1009.67
2018-01-11T07:58:39.407Z,1009.67
2018-01-11T07:59:49.361Z,1009.62
2018-01-11T08:00:59.307Z,1009.65
2018-01-11T08:02:09.254Z,1009.66
2018-01-11T08:03:19.216Z,1009.71
2018-01-11T08:04:29.180Z,1009.69
2018-01-11T08:05:38.890Z,1009.7
2018-01-11T08:06:48.845Z,1009.76
2018-01-11T08:07:58.801Z,1009.74
2018-01-11T08:09:08.496Z,1009.79
2018-01-11T08:10:18.448Z,1009.77
2018-01-11T08:11:28.422Z,1009.78
2018-01-11T08:12:38.121Z,1009.84
2018-01-11T08:13:48.126Z,1009.86
2018-01-11T08:14:57.820Z,1009.88
2018-01-11T08:16:07.787Z,1009.88
2018-01-11T08:17:17.739Z,1009.87
2018-01-11T08:18:27.690Z,1009.89
2018-01-11T08:19:37.661Z,1009.95
2018-01-11T08:20:47.640Z,1009.95
2018-01-11T08:21:57.619Z,1009.95
2018-01-11T08:23:07.614Z,1009.97
2018-01-11T08:24:17.579Z,1010.01
2018-01-11T08:25:27.319Z,1009.99
2018-01-11T08:26:37.002Z,1010.01
2018-01-11T08:27:46.717Z,1010.02
2018-01-11T08:28:56.689Z,1010.06
2018-01-11T08:30:06.395Z,1010.04
2018-01-11T08:31:16.359Z,1010.08
2018-01-11T08:32:26.324Z,1010.05
2018-01-11T08:33:36.268Z,1010.09
2018-01-11T08:34:46.258Z,1010.11
2018-01-11T08:35:55.960Z,1010.13
2018-01-11T08:37:06.103Z,1010.15
2018-01-11T08:38:16.067Z,1010.14
2018-01-11T08:39:26.015Z,1010.15
2018-01-11T08:40:35.457Z,1010.17
2018-01-11T08:41:45.682Z,1010.2
2018-01-11T08:42:55.673Z,1010.17
2018-01-11T08:44:05.630Z,1010.15
2018-01-11T08:45:15.559Z,1010.17
2018-01-11T08:46:25.511Z,1010.19
2018-01-11T08:47:34.958Z,1010.22
2018-01-11T08:48:44.912Z,1010.23
2018-01-11T08:49:54.637Z,1010.21
2018-01-11T08:51:04.605Z,1010.29
2018-01-11T08:52:14.616Z,1010.26
2018-01-11T08:53:24.567Z,1010.24
2018-01-11T08:54:34.537Z,1010.28
2018-01-11T08:55:44.533Z,1010.25
2018-01-11T08:56:54.548Z,1010.27
2018-01-11T08:58:04.527Z,1010.28
2018-01-11T08:59:14.513Z,1010.29
2018-01-11T09:00:24.281Z,1010.33
2018-01-11T09:01:34.247Z,1010.34
2018-01-11T09:02:44.241Z,1010.37
2018-01-11T09:03:54.199Z,1010.37
2018-01-11T09:05:03.902Z,1010.32
2018-01-11T09:06:13.884Z,1010.41
2018-01-11T09:07:23.836Z,1010.39
2018-01-11T09:08:33.587Z,1010.45
2018-01-11T09:09:43.553Z,1010.45
2018-01-11T09:10:53.545Z,1010.51
2018-01-11T09:12:03.534Z,1010.49
2018-01-11T09:13:13.488Z,1010.5
2018-01-11T09:14:23.448Z,1010.55
2018-01-11T09:15:33.164Z,1010.54
2018-01-11T09:16:43.116Z,1010.56
2018-01-11T09:17:53.096Z,1010.59
2018-01-11T09:19:03.060Z,1010.58
2018-01-11T09:20:12.787Z,1010.62
2018-01-11T09:21:22.751Z,1010.62
2018-01-11T09:22:32.730Z,1010.63
2018-01-11T09:23:42.438Z,1010.65
2018-01-11T09:24:52.412Z,1010.68
2018-01-11T09:26:02.380Z,1010.68
2018-01-11T09:27:12.120Z,1010.73
2018-01-11T09:28:21.567Z,1010.71
2018-01-11T09:29:31.271Z,1010.76
2018-01-11T09:30:40.719Z,1010.78
2018-01-11T09:31:50.698Z,1010.78
2018-01-11T09:33:00.929Z,1010.78
2018-01-11T09:34:11.002Z,1010.82
2018-01-11T09:35:21.352Z,1010.8
2018-01-11T09:36:30.807Z,1010.81
2018-01-11T09:37:40.526Z,1010.81
2018-01-11T09:38:50.208Z,1010.84
2018-01-11T09:40:00.178Z,1010.83
2018-01-11T09:41:09.880Z,1010.83
2018-01-11T09:42:19.862Z,1010.88
2018-01-11T09:43:29.290Z,1010.84
2018-01-11T09:44:39.264Z,1010.86
2018-01-11T09:45:49.275Z,1010.86
2018-01-11T09:46:59.234Z,1010.87
2018-01-11T09:48:08.444Z,1010.9
2018-01-11T09:49:17.907Z,1010.88
2018-01-11T09:50:27.878Z,1010.89
2018-01-11T09:51:37.592Z,1010.91
2018-01-11T09:52:47.544Z,1010.88
2018-01-11T09:53:57.508Z,1010.9
2018-01-11T09:55:07.202Z,1010.86
2018-01-11T09:56:17.144Z,1010.93
2018-01-11T09:57:26.851Z,1010.87
2018-01-11T09:58:36.828Z,1010.88
2018-01-11T09:59:46.536Z,1010.88
2018-01-11T10:00:56.540Z,1010.82
2018-01-11T10:02:06.309Z,1010.86
2018-01-11T10:03:16.022Z,1010.85
2018-01-11T10:04:26.026Z,1010.85
2018-01-11T10:05:36.006Z,1010.87
2018-01-11T10:06:45.975Z,1010.87
2018-01-11T10:07:55.975Z,1010.91
2018-01-11T10:09:05.977Z,1010.89
2018-01-11T10:10:15.932Z,1010.86
2018-01-11T10:11:25.703Z,1010.9
2018-01-11T10:12:35.413Z,1010.88
2018-01-11T10:13:45.371Z,1010.88
2018-01-11T10:14:55.320Z,1010.85
2018-01-11T10:16:05.316Z,1010.86
2018-01-11T10:17:14.770Z,1010.9
2018-01-11T10:18:24.723Z,1010.84
2018-01-11T10:19:34.751Z,1010.87
2018-01-11T10:20:44.702Z,1010.88
2018-01-11T10:21:54.401Z,1010.89
2018-01-11T10:23:03.905Z,1010.91
2018-01-11T10:24:13.662Z,1010.94
2018-01-11T10:25:23.404Z,1010.92
2018-01-11T10:26:33.380Z,1010.96
2018-01-11T10:27:43.339Z,1010.93
2018-01-11T10:28:53.290Z,1010.97
2018-01-11T10:30:03.266Z,1010.97
2018-01-11T10:31:12.962Z,1011.02
2018-01-11T10:32:22.914Z,1010.99
2018-01-11T10:33:32.595Z,1010.97
2018-01-11T10:34:42.548Z,1011.02
2018-01-11T10:35:52.551Z,1011.02
2018-01-11T10:37:02.522Z,1011.06
2018-01-11T10:38:12.483Z,1011.03
2018-01-11T10:39:22.430Z,1011.06
2018-01-11T10:40:32.126Z,1011.07
2018-01-11T10:41:42.094Z,1011.04
2018-01-11T10:42:52.074Z,1011.03
2018-01-11T10:44:01.767Z,1011.1
2018-01-11T10:45:11.747Z,1011.08
2018-01-11T10:46:21.721Z,1011.09
2018-01-11T10:47:31.679Z,1011.09
2018-01-11T10:48:41.380Z,1011.1
2018-01-11T10:49:51.081Z,1011.08
2018-01-11T10:51:01.066Z,1011.09
2018-01-11T10:52:11.042Z,1011.12
2018-01-11T10:53:20.999Z,1011.13
2018-01-11T10:54:30.963Z,1011.07
2018-01-11T10:55:40.938Z,1011.14
2018-01-11T10:56:50.633Z,1011.13
2018-01-11T10:58:00.598Z,1011.11
2018-01-11T10:59:10.313Z,1011.11
2018-01-11T11:00:20.289Z,1011.14
2018-01-11T11:01:30.248Z,1011.12
2018-01-11T11:02:40.214Z,1011.14
2018-01-11T11:03:50.180Z,1011.1
2018-01-11T11:04:59.911Z,1011.09
2018-01-11T11:06:09.873Z,1011.12
2018-01-11T11:07:19.822Z,1011.12
2018-01-11T11:08:29.831Z,1011.12
2018-01-11T11:09:39.567Z,1011.14
2018-01-11T11:10:49.349Z,1011.13
2018-01-11T11:11:59.049Z,1011.15
2018-01-11T11:13:09.002Z,1011.18
2018-01-11T11:14:19.017Z,1011.16
2018-01-11T11:15:28.737Z,1011.12
2018-01-11T11:16:38.705Z,1011.15
2018-01-11T11:17:48.401Z,1011.17
2018-01-11T11:18:58.352Z,1011.16
2018-01-11T11:20:08.301Z,1011.19
2018-01-11T11:21:18.247Z,1011.14
2018-01-11T11:22:28.561Z,1011.14
2018-01-11T11:23:38.463Z,1011.15
2018-01-11T11:24:48.434Z,1011.14
2018-01-11T11:25:58.384Z,1011.19
2018-01-11T11:27:08.349Z,1011.14
2018-01-11T11:28:18.290Z,1011.17
2018-01-11T11:29:27.977Z,1011.13
2018-01-11T11:30:37.733Z,1011.15
2018-01-11T11:31:47.217Z,1011.22
2018-01-11T11:32:57.185Z,1011.19
2018-01-11T11:34:07.143Z,1011.19
2018-01-11T11:35:17.090Z,1011.18
2018-01-11T11:36:27.043Z,1011.17
2018-01-11T11:37:36.752Z,1011.18
2018-01-11T11:38:46.707Z,1011.11
2018-01-11T11:39:56.666Z,1011.16
2018-01-11T11:41:06.638Z,1011.12
2018-01-11T11:42:16.348Z,1011.13
2018-01-11T11:43:26.065Z,1011.13
2018-01-11T11:44:35.758Z,1011.11
2018-01-11T11:45:45.735Z,1011.1
2018-01-11T11:46:55.743Z,1011.08
2018-01-11T11:48:05.699Z,1011.1
2018-01-11T11:49:15.661Z,1011.08
2018-01-11T11:50:25.359Z,1011.08
2018-01-11T11:51:35.045Z,1011.08
2018-01-11T11:52:45.003Z,1011.09
2018-01-11T11:53:54.985Z,1011.08
2018-01-11T11:55:04.965Z,1011.12
2018-01-11T11:56:14.931Z,1011.08
2018-01-11T11:57:24.892Z,1011.11
2018-01-11T11:58:34.354Z,1011.04
2018-01-11T11:59:44.641Z,1011.04
2018-01-11T12:00:54.609Z,1011.06
2018-01-11T12:02:04.652Z,1011.07
2018-01-11T12:03:14.634Z,1011.09
2018-01-11T12:04:24.620Z,1011.06
2018-01-11T12:05:34.586Z,1011.08
2018-01-11T12:06:44.553Z,1011.06
2018-01-11T12:07:54.521Z,1011.12
2018-01-11T12:09:04.493Z,1011.14
2018-01-11T12:10:14.347Z,1011.12
2018-01-11T12:11:25.115Z,1011.12
2018-01-11T12:12:35.193Z,1011.17
2018-01-11T12:13:45.176Z,1011.21
2018-01-11T12:14:54.708Z,1011.16
2018-01-11T12:16:04.434Z,1011.2
2018-01-11T12:17:14.413Z,1011.16
2018-01-11T12:18:24.389Z,1011.16
2018-01-11T12:19:34.161Z,1011.22
2018-01-11T12:20:43.890Z,1011.18
2018-01-11T12:21:53.876Z,1011.2
2018-01-11T12:23:03.077Z,1011.18
2018-01-11T12:24:13.053Z,1011.23
2018-01-11T12:25:22.747Z,1011.2
2018-01-11T12:26:32.726Z,1011.16
2018-01-11T12:27:42.686Z,1011.19
2018-01-11T12:28:52.454Z,1011.21
2018-01-11T12:30:02.177Z,1011.22
2018-01-11T12:31:11.916Z,1011.22
2018-01-11T12:32:21.873Z,1011.23
2018-01-11T12:33:31.584Z,1011.21
2018-01-11T12:34:41.566Z,1011.28
2018-01-11T12:35:51.516Z,1011.24
2018-01-11T12:37:01.224Z,1011.21
2018-01-11T12:38:11.141Z,1011.27
2018-01-11T12:39:20.839Z,1011.24
2018-01-11T12:40:30.811Z,1011.3
2018-01-11T12:41:40.536Z,1011.27
2018-01-11T12:42:50.493Z,1011.26
2018-01-11T12:44:00.445Z,1011.29
2018-01-11T12:45:10.416Z,1011.28
2018-01-11T12:46:20.370Z,1011.33
2018-01-11T12:47:30.077Z,1011.34
2018-01-11T12:48:40.035Z,1011.34
2018-01-11T12:49:50.012Z,1011.32
2018-01-11T12:50:59.728Z,1011.35
2018-01-11T12:52:09.484Z,1011.35
2018-01-11T12:53:19.446Z,1011.37
2018-01-11T12:54:29.163Z,1011.41
2018-01-11T12:55:38.614Z,1011.45
2018-01-11T12:56:48.564Z,1011.5
2018-01-11T12:57:58.018Z,1011.5
2018-01-11T12:59:08.014Z,1011.53
2018-01-11T13:00:18.005Z,1011.53
2018-01-11T13:01:27.963Z,1011.55
2018-01-11T13:02:37.682Z,1011.55
2018-01-11T13:03:47.635Z,1011.58
2018-01-11T13:04:57.616Z,1011.57
2018-01-11T13:06:07.570Z,1011.59
2018-01-11T13:07:17.532Z,1011.58
2018-01-11T13:08:27.238Z,1011.59
2018-01-11T13:09:37.217Z,1011.53
2018-01-11T13:10:47.192Z,1011.58
2018-01-11T13:11:57.151Z,1011.55
2018-01-11T13:13:06.869Z,1011.6
2018-01-11T13:14:16.840Z,1011.57
2018-01-11T13:15:26.834Z,1011.59
2018-01-11T13:16:36.833Z,1011.59
2018-01-11T13:17:46.788Z,1011.65
2018-01-11T13:18:56.761Z,1011.64
2018-01-11T13:20:06.746Z,1011.66
2018-01-11T13:21:16.476Z,1011.63
2018-01-11T13:22:26.452Z,1011.6
2018-01-11T13:23:36.414Z,1011.61
2018-01-11T13:24:46.359Z,1011.63
2018-01-11T13:25:56.053Z,1011.65
2018-01-11T13:27:06.004Z,1011.65
2018-01-11T13:28:15.990Z,1011.62
2018-01-11T13:29:25.444Z,1011.63
2018-01-11T13:30:35.170Z,1011.67
2018-01-11T13:31:44.872Z,1011.71
2018-01-11T13:32:54.836Z,1011.74
2018-01-11T13:34:04.536Z,1011.72
2018-01-11T13:35:14.219Z,1011.68
2018-01-11T13:36:24.203Z,1011.69
2018-01-11T13:37:34.161Z,1011.71
2018-01-11T13:38:43.873Z,1011.67
2018-01-11T13:39:53.572Z,1011.7
2018-01-11T13:41:03.269Z,1011.66
2018-01-11T13:42:12.962Z,1011.73
2018-01-11T13:43:22.937Z,1011.78
2018-01-11T13:44:32.938Z,1011.77
2018-01-11T13:45:42.878Z,1011.79
2018-01-11T13:46:52.615Z,1011.81
2018-01-11T13:48:02.612Z,1011.79
2018-01-11T13:49:12.322Z,1011.81
2018-01-11T13:50:22.031Z,1011.82
2018-01-11T13:51:32.001Z,1011.86
2018-01-11T13:52:41.489Z,1011.87
2018-01-11T13:53:51.476Z,1011.88
2018-01-11T13:55:01.436Z,1011.88
2018-01-11T13:56:11.394Z,1011.89
2018-01-11T13:57:21.083Z,1011.94
2018-01-11T13:58:30.795Z,1011.94
2018-01-11T13:59:40.494Z,1011.93
2018-01-11T14:00:50.242Z,1011.97
2018-01-11T14:02:00.190Z,1012
2018-01-11T14:03:10.166Z,1011.97
2018-01-11T14:04:20.169Z,1012.01
2018-01-11T14:05:29.870Z,1012.02
2018-01-11T14:06:39.567Z,1012
2018-01-11T14:07:49.297Z,1012.04